createdAt,value
2023-04-18T00:01:28.891Z,15.05
2023-04-18T00:03:55.917Z,14.33
2023-04-18T00:06:22.474Z,13.18
2023-04-18T00:08:49.194Z,14.88
2023-04-18T00:11:15.764Z,14.07
2023-04-18T00:13:42.270Z,14.57
2023-04-18T00:16:09.027Z,12.17
2023-04-18T00:18:37.164Z,14.98
2023-04-18T00:21:04.511Z,12.55
2023-04-18T00:23:31.209Z,13.48
2023-04-18T00:25:57.662Z,15.63
2023-04-18T00:28:24.458Z,12.97
2023-04-18T00:30:51.436Z,10.20
2023-04-18T00:33:18.180Z,12.02
2023-04-18T00:35:44.706Z,8.98
2023-04-18T00:38:11.193Z,10.68
2023-04-18T00:40:38.546Z,12.70
2023-04-18T00:43:07.487Z,11.43
2023-04-18T00:45:34.344Z,9.77
2023-04-18T00:48:01.034Z,11.23
2023-04-18T00:50:27.719Z,7.63
2023-04-18T00:52:54.780Z,8.37
2023-04-18T00:55:22.014Z,10.38
2023-04-18T00:57:48.480Z,11.07
2023-04-18T01:00:15.460Z,10.77
2023-04-18T01:02:42.263Z,9.57
2023-04-18T01:05:09.004Z,10.43
2023-04-18T01:07:38.036Z,14.63
2023-04-18T01:10:05.186Z,10.38
2023-04-18T01:12:31.722Z,10.38
2023-04-18T01:14:58.825Z,10.23
2023-04-18T01:17:25.355Z,10.73
2023-04-18T01:19:51.827Z,9.15
2023-04-18T01:22:19.766Z,10.23
2023-04-18T01:24:46.198Z,12.75
2023-04-18T01:27:13.598Z,10.25
2023-04-18T01:29:40.782Z,8.20
2023-04-18T01:32:07.435Z,9.00
2023-04-18T01:34:33.966Z,11.05
2023-04-18T01:37:00.612Z,8.65
2023-04-18T01:39:27.260Z,9.25
2023-04-18T01:41:53.802Z,11.70
2023-04-18T01:44:20.443Z,8.27
2023-04-18T01:46:46.921Z,8.68
2023-04-18T01:49:13.473Z,8.15
2023-04-18T01:51:39.973Z,9.57
2023-04-18T01:54:06.529Z,9.30
2023-04-18T01:56:33.129Z,8.15
2023-04-18T01:58:59.607Z,9.27
2023-04-18T02:01:26.149Z,9.25
2023-04-18T02:03:52.927Z,8.05
2023-04-18T02:06:19.608Z,8.70
2023-04-18T02:08:46.166Z,9.40
2023-04-18T02:11:12.727Z,8.02
2023-04-18T02:13:39.271Z,11.23
2023-04-18T02:16:06.263Z,8.32
2023-04-18T02:18:34.649Z,7.20
2023-04-18T02:21:01.159Z,9.75
2023-04-18T02:23:27.680Z,9.32
2023-04-18T02:25:54.577Z,9.32
2023-04-18T02:28:21.170Z,9.43
2023-04-18T02:30:47.673Z,9.30
2023-04-18T02:33:14.115Z,7.97
2023-04-18T02:35:40.739Z,10.50
2023-04-18T02:38:07.300Z,8.77
2023-04-18T02:40:33.825Z,7.15
2023-04-18T02:43:00.393Z,7.83
2023-04-18T02:45:26.907Z,7.80
2023-04-18T02:47:56.224Z,7.43
2023-04-18T02:50:23.572Z,8.57
2023-04-18T02:52:50.107Z,8.45
2023-04-18T02:55:16.734Z,9.90
2023-04-18T02:57:43.299Z,7.68
2023-04-18T03:00:10.434Z,8.45
2023-04-18T03:02:37.078Z,6.82
2023-04-18T03:05:04.199Z,8.52
2023-04-18T03:07:31.201Z,10.53
2023-04-18T03:09:58.081Z,9.45
2023-04-18T03:12:24.730Z,8.38
2023-04-18T03:14:51.451Z,7.25
2023-04-18T03:17:18.430Z,8.32
2023-04-18T03:19:46.300Z,7.07
2023-04-18T03:22:14.051Z,7.53
2023-04-18T03:24:40.722Z,7.35
2023-04-18T03:27:07.356Z,11.20
2023-04-18T03:29:34.005Z,8.45
2023-04-18T03:32:00.438Z,9.37
2023-04-18T03:34:27.666Z,11.85
2023-04-18T03:36:54.336Z,11.73
2023-04-18T03:39:21.064Z,13.75
2023-04-18T03:41:47.633Z,9.75
2023-04-18T03:44:14.722Z,11.27
2023-04-18T03:46:42.051Z,10.02
2023-04-18T03:49:08.930Z,14.05
2023-04-18T03:51:45.304Z,11.30
2023-04-18T03:54:11.975Z,10.70
2023-04-18T03:56:38.678Z,9.67
2023-04-18T03:59:05.234Z,10.80
2023-04-18T04:01:32.069Z,10.73
2023-04-18T04:03:58.811Z,13.10
2023-04-18T04:06:26.270Z,9.60
2023-04-18T04:08:52.780Z,10.77
2023-04-18T04:11:19.354Z,9.68
2023-04-18T04:13:45.880Z,12.25
2023-04-18T04:16:12.633Z,11.23
2023-04-18T04:18:39.265Z,12.20
2023-04-18T04:21:06.711Z,10.33
2023-04-18T04:23:34.200Z,10.30
2023-04-18T04:26:04.659Z,12.80
2023-04-18T04:28:31.961Z,8.55
2023-04-18T04:30:59.299Z,10.65
2023-04-18T04:33:28.421Z,13.27
2023-04-18T04:35:55.533Z,12.60
2023-04-18T04:38:25.259Z,10.68
2023-04-18T04:40:52.860Z,10.32
2023-04-18T04:43:20.565Z,11.80
2023-04-18T04:45:52.619Z,11.57
2023-04-18T04:48:20.333Z,11.20
2023-04-18T04:50:55.629Z,14.18
2023-04-18T04:53:23.253Z,12.18
2023-04-18T04:55:51.693Z,10.68
2023-04-18T04:58:18.519Z,11.87
2023-04-18T05:00:44.988Z,11.80
2023-04-18T05:03:11.728Z,10.23
2023-04-18T05:05:38.422Z,10.07
2023-04-18T05:08:05.333Z,11.82
2023-04-18T05:10:32.500Z,10.77
2023-04-18T05:12:58.997Z,13.52
2023-04-18T05:15:25.665Z,12.93
2023-04-18T05:17:52.171Z,12.13
2023-04-18T05:20:18.735Z,11.23
2023-04-18T05:22:45.346Z,11.70
2023-04-18T05:25:12.582Z,11.52
2023-04-18T05:27:39.428Z,11.25
2023-04-18T05:30:06.800Z,12.43
2023-04-18T05:32:33.407Z,11.80
2023-04-18T05:34:59.980Z,10.47
2023-04-18T05:37:26.461Z,15.43
2023-04-18T05:39:52.937Z,11.48
2023-04-18T05:42:19.431Z,11.52
2023-04-18T05:44:45.882Z,11.93
2023-04-18T05:47:12.331Z,11.53
2023-04-18T05:49:38.897Z,9.63
2023-04-18T05:52:05.658Z,12.23
2023-04-18T05:54:32.166Z,11.40
2023-04-18T05:56:58.598Z,14.00
2023-04-18T05:59:26.806Z,12.57
2023-04-18T06:01:53.520Z,14.27
2023-04-18T06:04:20.830Z,14.00
2023-04-18T06:06:47.686Z,11.30
2023-04-18T06:09:14.186Z,10.18
2023-04-18T06:11:40.695Z,10.70
2023-04-18T06:14:07.902Z,12.23
2023-04-18T06:16:37.272Z,10.70
2023-04-18T06:19:05.322Z,10.13
2023-04-18T06:21:32.217Z,9.68
2023-04-18T06:23:59.068Z,13.30
2023-04-18T06:26:25.574Z,12.70
2023-04-18T06:28:52.213Z,12.10
2023-04-18T06:31:18.766Z,12.68
2023-04-18T06:33:45.267Z,9.73
2023-04-18T06:36:11.843Z,9.90
2023-04-18T06:38:38.448Z,11.88
2023-04-18T06:41:05.069Z,11.93
2023-04-18T06:43:31.619Z,11.38
2023-04-18T06:45:58.994Z,12.00
2023-04-18T06:48:25.635Z,10.40
2023-04-18T06:50:52.087Z,12.80
2023-04-18T06:53:18.537Z,9.50
2023-04-18T06:55:45.114Z,9.52
2023-04-18T06:58:13.778Z,13.80
2023-04-18T07:00:40.531Z,11.90
2023-04-18T07:03:11.437Z,9.52
2023-04-18T07:05:40.965Z,9.77
2023-04-18T07:08:08.142Z,9.73
2023-04-18T07:10:34.647Z,8.38
2023-04-18T07:13:01.184Z,10.97
2023-04-18T07:15:27.752Z,9.45
2023-04-18T07:17:54.387Z,10.43
2023-04-18T07:20:20.922Z,9.52
2023-04-18T07:22:48.129Z,10.38
2023-04-18T07:25:14.776Z,13.17
2023-04-18T07:27:41.293Z,9.82
2023-04-18T07:30:08.478Z,10.00
2023-04-18T07:32:35.055Z,7.75
2023-04-18T07:35:01.563Z,8.48
2023-04-18T07:37:28.078Z,10.17
2023-04-18T07:39:54.563Z,8.70
2023-04-18T07:42:22.192Z,8.70
2023-04-18T07:44:49.533Z,11.68
2023-04-18T07:47:16.110Z,9.18
2023-04-18T07:49:42.558Z,8.10
2023-04-18T07:52:09.069Z,8.80
2023-04-18T07:54:35.603Z,8.32
2023-04-18T07:57:02.161Z,8.70
2023-04-18T07:59:29.523Z,7.80
2023-04-18T08:01:56.126Z,7.53
2023-04-18T08:04:22.906Z,10.30
2023-04-18T08:06:49.637Z,8.13
2023-04-18T08:09:16.479Z,7.50
2023-04-18T08:11:43.212Z,8.38
2023-04-18T08:14:09.742Z,9.00
2023-04-18T08:16:36.712Z,7.90
2023-04-18T08:19:03.984Z,10.90
2023-04-18T08:21:31.493Z,7.50
2023-04-18T08:23:58.114Z,7.70
2023-04-18T08:26:24.660Z,7.07
2023-04-18T08:28:51.679Z,7.38
2023-04-18T08:31:18.252Z,6.88
2023-04-18T08:33:44.737Z,9.20
2023-04-18T08:36:12.191Z,7.65
2023-04-18T08:38:38.744Z,7.67
2023-04-18T08:41:05.316Z,7.15
2023-04-18T08:43:31.980Z,6.35
2023-04-18T08:46:00.039Z,5.88
2023-04-18T08:48:29.628Z,6.15
2023-04-18T08:50:59.562Z,5.97
2023-04-18T08:53:27.124Z,6.60
2023-04-18T08:55:56.249Z,8.25
2023-04-18T08:58:23.676Z,6.43
2023-04-18T09:00:52.079Z,6.50
2023-04-18T09:03:37.470Z,6.50
2023-04-18T09:06:22.530Z,5.55
2023-04-18T09:09:00.221Z,5.90
2023-04-18T09:11:31.834Z,5.82
2023-04-18T09:13:59.121Z,6.47
2023-04-18T09:16:27.736Z,7.80
2023-04-18T09:19:12.339Z,9.90
2023-04-18T09:21:41.224Z,6.43
2023-04-18T09:24:21.269Z,5.35
2023-04-18T09:26:49.787Z,7.47
2023-04-18T09:29:18.485Z,7.67
2023-04-18T09:31:57.505Z,7.53
2023-04-18T09:34:27.616Z,8.25
2023-04-18T09:37:07.803Z,7.32
2023-04-18T09:39:34.455Z,8.77
2023-04-18T09:42:01.478Z,7.47
2023-04-18T09:44:28.232Z,6.90
2023-04-18T09:46:54.745Z,6.53
2023-04-18T09:49:21.326Z,8.55
2023-04-18T09:51:56.053Z,6.35
2023-04-18T09:54:24.384Z,6.07
2023-04-18T09:56:53.473Z,5.60
2023-04-18T09:59:47.755Z,6.22
2023-04-18T10:02:27.528Z,6.82
2023-04-18T10:04:54.379Z,5.00
2023-04-18T10:07:21.296Z,6.37
2023-04-18T10:09:49.385Z,6.47
2023-04-18T10:14:44.474Z,5.07
2023-04-18T10:17:11.908Z,4.82
2023-04-18T10:19:42.151Z,5.37
2023-04-18T10:22:08.821Z,4.60
2023-04-18T10:24:56.276Z,5.03
2023-04-18T10:27:47.896Z,4.38
2023-04-18T10:30:15.745Z,6.18
2023-04-18T10:32:42.647Z,6.27
2023-04-18T10:35:10.891Z,5.60
2023-04-18T10:37:59.395Z,6.35
2023-04-18T10:40:36.719Z,6.22
2023-04-18T10:43:03.229Z,4.53
2023-04-18T10:45:32.640Z,4.43
2023-04-18T10:48:31.211Z,4.13
2023-04-18T10:51:18.333Z,5.32
2023-04-18T10:53:57.623Z,5.57
2023-04-18T10:56:26.091Z,4.82
2023-04-18T10:58:53.414Z,4.07
2023-04-18T11:01:31.769Z,4.95
2023-04-18T11:04:00.030Z,5.38
2023-04-18T11:06:27.779Z,5.93
2023-04-18T11:09:11.774Z,5.32
2023-04-18T11:11:38.353Z,6.20
2023-04-18T11:14:05.302Z,6.13
2023-04-18T11:16:34.327Z,6.60
2023-04-18T11:19:00.997Z,6.00
2023-04-18T11:21:30.614Z,6.30
2023-04-18T11:23:57.942Z,6.07
2023-04-18T11:26:25.948Z,6.30
2023-04-18T11:28:59.029Z,6.60
2023-04-18T11:31:25.897Z,7.65
2023-04-18T11:33:52.805Z,10.07
2023-04-18T11:36:19.412Z,6.43
2023-04-18T11:38:46.432Z,7.97
2023-04-18T11:41:16.578Z,7.22
2023-04-18T11:43:44.923Z,6.78
2023-04-18T11:46:13.380Z,7.78
2023-04-18T11:48:45.432Z,7.20
2023-04-18T11:51:32.315Z,6.90
2023-04-18T11:53:58.782Z,8.85
2023-04-18T11:56:25.397Z,9.55
2023-04-18T11:58:52.048Z,6.75
2023-04-18T12:01:19.712Z,10.23
2023-04-18T12:04:08.170Z,9.65
2023-04-18T12:06:52.266Z,9.95
2023-04-18T12:09:21.217Z,8.63
2023-04-18T12:11:59.314Z,8.95
2023-04-18T12:14:25.839Z,10.57
2023-04-18T12:16:52.446Z,9.43
2023-04-18T12:19:20.765Z,8.35
2023-04-18T12:22:01.164Z,7.53
2023-04-18T12:24:32.368Z,9.40
2023-04-18T12:26:59.284Z,11.33
2023-04-18T12:29:27.321Z,8.88
2023-04-18T12:31:54.068Z,9.73
2023-04-18T12:34:21.054Z,10.35
2023-04-18T12:36:47.571Z,8.40
2023-04-18T12:39:14.028Z,10.33
2023-04-18T12:41:40.648Z,11.55
2023-04-18T12:44:07.383Z,11.43
2023-04-18T12:46:33.970Z,9.45
2023-04-18T12:49:00.602Z,10.60
2023-04-18T12:51:27.929Z,10.47
2023-04-18T12:53:54.479Z,11.07
2023-04-18T12:56:21.549Z,10.80
2023-04-18T12:58:48.018Z,9.82
2023-04-18T13:01:14.708Z,11.02
2023-04-18T13:03:42.128Z,12.73
2023-04-18T13:06:09.234Z,10.25
2023-04-18T13:08:37.575Z,11.93
2023-04-18T13:11:04.252Z,10.23
2023-04-18T13:13:30.816Z,12.90
2023-04-18T13:15:57.308Z,11.13
2023-04-18T13:18:24.032Z,14.93
2023-04-18T13:20:50.581Z,10.43
2023-04-18T13:23:17.096Z,10.40
2023-04-18T13:25:43.637Z,11.98
2023-04-18T13:28:10.277Z,12.37
2023-04-18T13:30:36.722Z,10.48
2023-04-18T13:33:03.389Z,11.68
2023-04-18T13:35:30.204Z,11.13
2023-04-18T13:37:56.700Z,11.50
2023-04-18T13:40:23.238Z,12.87
2023-04-18T13:42:49.766Z,12.45
2023-04-18T13:45:16.274Z,10.50
2023-04-18T13:47:42.777Z,13.60
2023-04-18T13:50:09.802Z,13.57
2023-04-18T13:52:36.520Z,12.20
2023-04-18T13:55:03.828Z,11.40
2023-04-18T13:57:32.361Z,10.93
2023-04-18T13:59:59.088Z,11.80
2023-04-18T14:02:25.833Z,12.38
2023-04-18T14:04:54.244Z,11.40
2023-04-18T14:07:20.810Z,11.50
2023-04-18T14:09:48.235Z,11.32
2023-04-18T14:12:14.882Z,11.05
2023-04-18T14:14:41.998Z,12.20
2023-04-18T14:17:08.569Z,9.47
2023-04-18T14:19:35.066Z,11.88
2023-04-18T14:22:01.520Z,11.27
2023-04-18T14:24:28.092Z,12.63
2023-04-18T14:26:54.831Z,10.80
2023-04-18T14:29:21.391Z,10.43
2023-04-18T14:31:48.333Z,14.82
2023-04-18T14:34:15.025Z,12.68
2023-04-18T14:36:41.500Z,11.60
2023-04-18T14:39:08.392Z,13.32
2023-04-18T14:41:34.907Z,11.47
2023-04-18T14:44:01.823Z,12.88
2023-04-18T14:46:29.185Z,13.88
2023-04-18T14:48:55.694Z,11.68
2023-04-18T14:51:23.638Z,9.80
2023-04-18T14:53:50.192Z,12.00
2023-04-18T14:56:20.829Z,11.68
2023-04-18T14:58:47.570Z,10.95
2023-04-18T15:01:14.151Z,12.40
2023-04-18T15:03:40.988Z,9.15
2023-04-18T15:06:07.791Z,9.03
2023-04-18T15:08:34.457Z,12.40
2023-04-18T15:11:01.402Z,11.57
2023-04-18T15:13:27.980Z,11.98
2023-04-18T15:15:56.439Z,11.32
2023-04-18T15:18:23.041Z,10.37
2023-04-18T15:20:50.210Z,11.23
2023-04-18T15:23:16.823Z,12.00
2023-04-18T15:25:44.523Z,9.65
2023-04-18T15:28:13.378Z,15.55
2023-04-18T15:30:40.219Z,10.10
2023-04-18T15:33:07.044Z,9.30
2023-04-18T15:35:33.559Z,10.30
2023-04-18T15:38:00.241Z,10.75
2023-04-18T15:40:26.906Z,9.82
2023-04-18T15:42:54.417Z,9.80
2023-04-18T15:45:21.360Z,11.60
2023-04-18T15:47:48.116Z,8.45
2023-04-18T15:50:16.219Z,10.55
2023-04-18T15:52:43.989Z,7.60
2023-04-18T15:55:12.418Z,8.67
2023-04-18T15:57:39.495Z,12.23
2023-04-18T16:00:11.729Z,9.13
2023-04-18T16:02:38.275Z,9.55
2023-04-18T16:05:05.117Z,10.15
2023-04-18T16:07:31.655Z,8.67
2023-04-18T16:09:58.119Z,9.05
2023-04-18T16:12:24.650Z,9.02
2023-04-18T16:14:51.364Z,9.13
2023-04-18T16:17:18.148Z,8.57
2023-04-18T16:19:44.671Z,8.53
2023-04-18T16:22:12.161Z,9.55
2023-04-18T16:24:41.542Z,7.45
2023-04-18T16:27:09.051Z,8.70
2023-04-18T16:29:35.702Z,10.43
2023-04-18T16:32:02.278Z,8.70
2023-04-18T16:34:28.738Z,9.52
2023-04-18T16:36:55.751Z,7.68
2023-04-18T16:39:22.440Z,8.80
2023-04-18T16:41:49.437Z,8.75
2023-04-18T16:44:16.175Z,10.50
2023-04-18T16:46:42.906Z,10.35
2023-04-18T16:49:09.517Z,8.55
2023-04-18T16:51:37.296Z,9.10
2023-04-18T16:54:04.890Z,7.65
2023-04-18T16:56:31.631Z,7.30
2023-04-18T16:58:58.659Z,7.57
2023-04-18T17:01:29.378Z,9.23
2023-04-18T17:03:56.314Z,11.73
2023-04-18T17:06:24.948Z,8.05
2023-04-18T17:08:53.483Z,6.50
2023-04-18T17:11:20.854Z,7.93
2023-04-18T17:13:47.448Z,6.65
2023-04-18T17:16:13.964Z,8.73
2023-04-18T17:18:41.693Z,9.13
2023-04-18T17:21:12.221Z,7.57
2023-04-18T17:23:41.622Z,7.47
2023-04-18T17:26:11.552Z,7.13
2023-04-18T17:28:38.076Z,8.07
2023-04-18T17:31:05.040Z,7.85
2023-04-18T17:33:31.775Z,6.40
2023-04-18T17:35:58.593Z,12.73
2023-04-18T17:38:25.307Z,7.90
2023-04-18T17:41:02.456Z,8.75
2023-04-18T17:43:29.056Z,9.27
2023-04-18T17:45:56.812Z,8.93
2023-04-18T17:48:23.288Z,6.70
2023-04-18T17:50:49.772Z,8.73
2023-04-18T17:53:17.437Z,9.23
2023-04-18T17:55:44.018Z,8.48
2023-04-18T17:58:10.520Z,8.97
2023-04-18T18:00:37.084Z,9.40
2023-04-18T18:03:03.967Z,9.70
2023-04-18T18:05:31.133Z,7.95
2023-04-18T18:07:59.892Z,8.90
2023-04-18T18:10:26.995Z,8.83
2023-04-18T18:12:53.538Z,8.43
2023-04-18T18:15:20.272Z,9.02
2023-04-18T18:17:48.959Z,8.13
2023-04-18T18:21:00.378Z,7.43
2023-04-18T18:23:29.166Z,8.47
2023-04-18T18:25:55.800Z,8.13
2023-04-18T18:28:22.421Z,8.98
2023-04-18T18:30:49.174Z,8.73
2023-04-18T18:33:16.989Z,11.77
2023-04-18T18:35:43.598Z,10.63
2023-04-18T18:38:19.725Z,10.07
2023-04-18T18:40:46.384Z,9.43
2023-04-18T18:43:13.464Z,9.98
2023-04-18T18:45:55.236Z,8.50
2023-04-18T18:48:27.386Z,8.67
2023-04-18T18:50:59.551Z,8.50
2023-04-18T18:53:26.439Z,9.25
2023-04-18T18:56:17.276Z,8.75
2023-04-18T18:59:18.757Z,8.60
2023-04-18T19:02:09.421Z,10.73
2023-04-18T19:04:38.867Z,8.20
2023-04-18T19:07:07.048Z,11.00
2023-04-18T19:09:33.735Z,10.15
2023-04-18T19:12:01.020Z,12.38
2023-04-18T19:14:27.539Z,8.53
2023-04-18T19:16:55.829Z,11.50
2023-04-18T19:19:22.332Z,10.65
2023-04-18T19:21:49.195Z,9.18
2023-04-18T19:24:15.911Z,9.00
2023-04-18T19:26:42.446Z,7.53
2023-04-18T19:29:10.732Z,7.15
2023-04-18T19:31:37.382Z,6.28
2023-04-18T19:34:04.121Z,7.47
2023-04-18T19:36:31.878Z,6.30
2023-04-18T19:38:58.582Z,5.57
2023-04-18T19:41:26.012Z,7.22
2023-04-18T19:43:52.542Z,6.43
2023-04-18T19:46:19.066Z,6.35
2023-04-18T19:48:45.762Z,7.40
2023-04-18T19:51:12.390Z,7.53
2023-04-18T19:53:39.119Z,6.47
2023-04-18T19:56:05.674Z,6.10
2023-04-18T19:58:44.719Z,7.50
2023-04-18T20:01:12.662Z,6.75
2023-04-18T20:03:40.497Z,7.80
2023-04-18T20:06:07.807Z,7.38
2023-04-18T20:08:39.443Z,6.20
2023-04-18T20:11:11.078Z,6.70
2023-04-18T20:13:38.191Z,6.55
2023-04-18T20:16:05.701Z,5.97
2023-04-18T20:18:33.878Z,5.53
2023-04-18T20:21:00.481Z,5.60
2023-04-18T20:23:27.027Z,6.65
2023-04-18T20:25:53.540Z,7.55
2023-04-18T20:28:20.316Z,8.30
2023-04-18T20:30:47.965Z,8.10
2023-04-18T20:33:14.673Z,6.25
2023-04-18T20:35:41.625Z,6.25
2023-04-18T20:38:09.956Z,7.53
2023-04-18T20:40:38.721Z,6.07
2023-04-18T20:43:06.887Z,7.30
2023-04-18T20:45:37.710Z,6.45
2023-04-18T20:48:04.809Z,8.65
2023-04-18T20:50:31.516Z,8.70
2023-04-18T20:53:00.367Z,6.07
2023-04-18T20:55:26.839Z,6.22
2023-04-18T20:57:53.374Z,7.65
2023-04-18T21:00:20.114Z,6.20
2023-04-18T21:02:46.765Z,6.10
2023-04-18T21:05:13.356Z,9.83
2023-04-18T21:07:39.838Z,6.95
2023-04-18T21:10:06.966Z,6.97
2023-04-18T21:12:33.452Z,5.28
2023-04-18T21:14:59.882Z,5.10
2023-04-18T21:17:27.009Z,6.03
2023-04-18T21:19:55.766Z,6.63
2023-04-18T21:22:22.183Z,6.13
2023-04-18T21:24:48.625Z,8.75
2023-04-18T21:27:16.230Z,5.70
2023-04-18T21:29:42.821Z,6.37
2023-04-18T21:32:09.370Z,6.88
2023-04-18T21:34:35.853Z,5.78
2023-04-18T21:37:02.454Z,6.90
2023-04-18T21:39:28.906Z,8.48
2023-04-18T21:41:55.410Z,6.93
2023-04-18T21:44:21.907Z,6.07
2023-04-18T21:46:48.396Z,7.13
2023-04-18T21:49:15.320Z,6.95
2023-04-18T21:51:41.828Z,4.88
2023-04-18T21:54:08.467Z,6.20
2023-04-18T21:56:34.884Z,5.10
2023-04-18T21:59:01.350Z,6.40
2023-04-18T22:01:27.932Z,6.40
2023-04-18T22:03:54.649Z,7.45
2023-04-18T22:06:23.178Z,6.43
2023-04-18T22:08:50.101Z,7.10
2023-04-18T22:11:16.563Z,5.88
2023-04-18T22:13:45.810Z,5.55
2023-04-18T22:16:12.302Z,7.70
2023-04-18T22:18:38.770Z,6.37
2023-04-18T22:21:06.112Z,5.55
2023-04-18T22:23:32.626Z,6.85
2023-04-18T22:25:59.189Z,6.68
2023-04-18T22:28:27.812Z,5.75
2023-04-18T22:30:54.381Z,7.03
2023-04-18T22:33:20.859Z,7.25
2023-04-18T22:35:48.445Z,7.50
2023-04-18T22:38:15.169Z,5.97
2023-04-18T22:40:41.885Z,8.65
2023-04-18T22:43:08.327Z,7.30
2023-04-18T22:45:34.992Z,6.43
2023-04-18T22:48:01.440Z,6.95
2023-04-18T22:50:27.938Z,6.63
2023-04-18T22:52:54.399Z,8.68
2023-04-18T22:55:20.922Z,7.17
2023-04-18T22:57:47.367Z,5.88
2023-04-18T23:00:14.536Z,6.45
2023-04-18T23:02:41.557Z,5.80
2023-04-18T23:05:10.654Z,6.00
2023-04-18T23:07:37.134Z,6.70
2023-04-18T23:10:07.264Z,6.45
2023-04-18T23:12:33.800Z,7.43
2023-04-18T23:15:00.304Z,8.40
2023-04-18T23:17:26.927Z,6.47
2023-04-18T23:19:53.417Z,7.30
2023-04-18T23:22:20.612Z,6.25
2023-04-18T23:24:47.079Z,7.63
2023-04-18T23:27:13.551Z,7.80
2023-04-18T23:29:40.097Z,6.18
2023-04-18T23:32:06.639Z,6.13
2023-04-18T23:34:33.173Z,6.40
2023-04-18T23:37:00.496Z,6.70
2023-04-18T23:39:26.957Z,6.63
2023-04-18T23:41:53.423Z,7.88
2023-04-18T23:44:19.963Z,6.63
2023-04-18T23:46:47.254Z,7.22
2023-04-18T23:49:14.270Z,8.23
2023-04-18T23:51:40.803Z,8.50
2023-04-18T23:54:07.593Z,8.57
2023-04-18T23:56:34.384Z,8.20
2023-04-18T23:59:00.882Z,7.97
